sensor_id;sensor_type;location;lat;lon;timestamp;temperature;humidity
29571;DHT22;16814;52.118;11.436;2023-03-13T00:00:34;6.50;99.90
29571;DHT22;16814;52.118;11.436;2023-03-13T00:03:00;6.40;99.90
29571;DHT22;16814;52.118;11.436;2023-03-13T00:05:25;6.40;99.90
29571;DHT22;16814;52.118;11.436;2023-03-13T00:07:51;6.40;99.90
29571;DHT22;16814;52.118;11.436;2023-03-13T00:10:16;6.50;99.90
29571;DHT22;16814;52.118;11.436;2023-03-13T00:12:42;6.50;99.90
29571;DHT22;16814;52.118;11.436;2023-03-13T00:15:08;6.50;99.90
29571;DHT22;16814;52.118;11.436;2023-03-13T00:17:33;6.50;99.90
29571;DHT22;16814;52.118;11.436;2023-03-13T00:19:59;6.50;99.90
29571;DHT22;16814;52.118;11.436;2023-03-13T00:22:25;6.50;99.90
29571;DHT22;16814;52.118;11.436;2023-03-13T00:24:51;6.60;99.90
29571;DHT22;16814;52.118;11.436;2023-03-13T00:27:17;6.50;99.90
29571;DHT22;16814;52.118;11.436;2023-03-13T00:29:42;6.50;99.90
29571;DHT22;16814;52.118;11.436;2023-03-13T00:32:08;6.50;99.90
29571;DHT22;16814;52.118;11.436;2023-03-13T00:34:33;6.50;99.90
29571;DHT22;16814;52.118;11.436;2023-03-13T00:36:59;6.50;99.90
29571;DHT22;16814;52.118;11.436;2023-03-13T00:39:24;6.50;99.90
29571;DHT22;16814;52.118;11.436;2023-03-13T00:41:50;6.50;99.90
29571;DHT22;16814;52.118;11.436;2023-03-13T00:44:15;6.50;99.90
29571;DHT22;16814;52.118;11.436;2023-03-13T00:46:41;6.70;99.90
29571;DHT22;16814;52.118;11.436;2023-03-13T00:49:06;6.70;99.90
29571;DHT22;16814;52.118;11.436;2023-03-13T00:51:32;6.70;99.90
29571;DHT22;16814;52.118;11.436;2023-03-13T00:53:59;6.80;99.90
29571;DHT22;16814;52.118;11.436;2023-03-13T00:56:25;6.70;99.90
29571;DHT22;16814;52.118;11.436;2023-03-13T00:58:52;6.70;99.90
29571;DHT22;16814;52.118;11.436;2023-03-13T01:01:25;6.70;99.90
29571;DHT22;16814;52.118;11.436;2023-03-13T01:03:54;6.60;99.90
29571;DHT22;16814;52.118;11.436;2023-03-13T01:06:24;6.70;99.90
29571;DHT22;16814;52.118;11.436;2023-03-13T01:08:50;6.70;99.90
29571;DHT22;16814;52.118;11.436;2023-03-13T01:11:22;6.60;99.90
29571;DHT22;16814;52.118;11.436;2023-03-13T01:13:48;6.70;99.90
29571;DHT22;16814;52.118;11.436;2023-03-13T01:16:16;6.70;99.90
29571;DHT22;16814;52.118;11.436;2023-03-13T01:18:45;6.70;99.90
29571;DHT22;16814;52.118;11.436;2023-03-13T01:21:11;6.70;99.90
29571;DHT22;16814;52.118;11.436;2023-03-13T01:23:37;6.80;99.90
29571;DHT22;16814;52.118;11.436;2023-03-13T01:26:04;6.80;99.90
29571;DHT22;16814;52.118;11.436;2023-03-13T01:28:30;6.80;99.90
29571;DHT22;16814;52.118;11.436;2023-03-13T01:30:56;6.90;99.90
29571;DHT22;16814;52.118;11.436;2023-03-13T01:33:21;6.80;99.90
29571;DHT22;16814;52.118;11.436;2023-03-13T01:35:47;6.90;99.90
29571;DHT22;16814;52.118;11.436;2023-03-13T01:38:13;6.80;99.90
29571;DHT22;16814;52.118;11.436;2023-03-13T01:40:43;6.90;99.90
29571;DHT22;16814;52.118;11.436;2023-03-13T01:43:24;6.90;99.90
29571;DHT22;16814;52.118;11.436;2023-03-13T01:45:57;6.90;99.90
29571;DHT22;16814;52.118;11.436;2023-03-13T01:51:26;6.80;99.90
29571;DHT22;16814;52.118;11.436;2023-03-13T01:57:07;6.80;99.90
29571;DHT22;16814;52.118;11.436;2023-03-13T01:59:41;6.80;99.90
29571;DHT22;16814;52.118;11.436;2023-03-13T02:02:08;6.80;99.90
29571;DHT22;16814;52.118;11.436;2023-03-13T02:04:38;6.70;99.90
29571;DHT22;16814;52.118;11.436;2023-03-13T02:07:13;6.70;99.90
29571;DHT22;16814;52.118;11.436;2023-03-13T02:09:42;6.70;99.90
29571;DHT22;16814;52.118;11.436;2023-03-13T02:12:12;6.70;99.90
29571;DHT22;16814;52.118;11.436;2023-03-13T02:14:41;6.70;99.90
29571;DHT22;16814;52.118;11.436;2023-03-13T02:17:07;6.60;99.90
29571;DHT22;16814;52.118;11.436;2023-03-13T02:19:50;6.60;99.90
29571;DHT22;16814;52.118;11.436;2023-03-13T02:27:34;6.50;99.90
29571;DHT22;16814;52.118;11.436;2023-03-13T02:30:00;6.40;99.90
29571;DHT22;16814;52.118;11.436;2023-03-13T02:32:28;6.40;99.90
29571;DHT22;16814;52.118;11.436;2023-03-13T02:34:57;6.50;99.90
29571;DHT22;16814;52.118;11.436;2023-03-13T02:37:27;6.50;99.90
29571;DHT22;16814;52.118;11.436;2023-03-13T02:39:54;6.50;99.90
29571;DHT22;16814;52.118;11.436;2023-03-13T02:42:22;6.50;99.90
29571;DHT22;16814;52.118;11.436;2023-03-13T02:44:48;6.50;99.90
29571;DHT22;16814;52.118;11.436;2023-03-13T02:47:22;6.60;99.90
29571;DHT22;16814;52.118;11.436;2023-03-13T02:49:48;6.60;99.90
29571;DHT22;16814;52.118;11.436;2023-03-13T02:52:30;6.70;99.90
29571;DHT22;16814;52.118;11.436;2023-03-13T02:55:00;6.60;99.90
29571;DHT22;16814;52.118;11.436;2023-03-13T02:57:27;6.60;99.90
29571;DHT22;16814;52.118;11.436;2023-03-13T02:59:53;6.50;99.90
29571;DHT22;16814;52.118;11.436;2023-03-13T03:02:19;6.60;99.90
29571;DHT22;16814;52.118;11.436;2023-03-13T03:04:44;6.60;99.90
29571;DHT22;16814;52.118;11.436;2023-03-13T03:07:10;6.60;99.90
29571;DHT22;16814;52.118;11.436;2023-03-13T03:09:35;6.60;99.90
29571;DHT22;16814;52.118;11.436;2023-03-13T03:12:01;6.60;99.90
29571;DHT22;16814;52.118;11.436;2023-03-13T03:14:26;6.60;99.90
29571;DHT22;16814;52.118;11.436;2023-03-13T03:16:52;6.60;99.90
29571;DHT22;16814;52.118;11.436;2023-03-13T03:19:18;6.60;99.90
29571;DHT22;16814;52.118;11.436;2023-03-13T03:21:43;6.70;99.90
29571;DHT22;16814;52.118;11.436;2023-03-13T03:24:09;6.70;99.90
29571;DHT22;16814;52.118;11.436;2023-03-13T03:26:35;6.70;99.90
29571;DHT22;16814;52.118;11.436;2023-03-13T03:29:00;6.70;99.90
29571;DHT22;16814;52.118;11.436;2023-03-13T03:31:26;6.60;99.90
29571;DHT22;16814;52.118;11.436;2023-03-13T03:33:52;6.60;99.90
29571;DHT22;16814;52.118;11.436;2023-03-13T03:36:19;6.70;99.90
29571;DHT22;16814;52.118;11.436;2023-03-13T03:38:45;6.70;99.90
29571;DHT22;16814;52.118;11.436;2023-03-13T03:41:12;6.60;99.90
29571;DHT22;16814;52.118;11.436;2023-03-13T03:43:38;6.60;99.90
29571;DHT22;16814;52.118;11.436;2023-03-13T03:46:05;6.60;99.90
29571;DHT22;16814;52.118;11.436;2023-03-13T03:48:30;6.60;99.90
29571;DHT22;16814;52.118;11.436;2023-03-13T03:50:56;6.60;99.90
29571;DHT22;16814;52.118;11.436;2023-03-13T03:53:22;6.50;99.90
29571;DHT22;16814;52.118;11.436;2023-03-13T03:55:48;6.40;99.90
29571;DHT22;16814;52.118;11.436;2023-03-13T03:58:13;6.50;99.90
29571;DHT22;16814;52.118;11.436;2023-03-13T04:00:42;6.60;99.90
29571;DHT22;16814;52.118;11.436;2023-03-13T04:03:09;6.60;99.90
29571;DHT22;16814;52.118;11.436;2023-03-13T04:05:34;6.60;99.90
29571;DHT22;16814;52.118;11.436;2023-03-13T04:08:00;6.60;99.90
29571;DHT22;16814;52.118;11.436;2023-03-13T04:10:25;6.60;99.90
29571;DHT22;16814;52.118;11.436;2023-03-13T04:12:51;6.60;99.90
29571;DHT22;16814;52.118;11.436;2023-03-13T04:15:16;6.60;99.90
29571;DHT22;16814;52.118;11.436;2023-03-13T04:17:42;6.70;99.90
29571;DHT22;16814;52.118;11.436;2023-03-13T04:20:08;6.60;99.90
29571;DHT22;16814;52.118;11.436;2023-03-13T04:22:35;6.60;99.90
29571;DHT22;16814;52.118;11.436;2023-03-13T04:25:01;6.70;99.90
29571;DHT22;16814;52.118;11.436;2023-03-13T04:27:26;6.70;99.90
29571;DHT22;16814;52.118;11.436;2023-03-13T04:29:52;6.70;99.90
29571;DHT22;16814;52.118;11.436;2023-03-13T04:32:17;6.60;99.90
29571;DHT22;16814;52.118;11.436;2023-03-13T04:34:43;6.50;99.90
29571;DHT22;16814;52.118;11.436;2023-03-13T04:37:08;6.50;99.90
29571;DHT22;16814;52.118;11.436;2023-03-13T04:39:34;6.50;99.90
29571;DHT22;16814;52.118;11.436;2023-03-13T04:42:00;6.50;99.90
29571;DHT22;16814;52.118;11.436;2023-03-13T04:44:25;6.50;99.90
29571;DHT22;16814;52.118;11.436;2023-03-13T04:46:51;6.50;99.90
29571;DHT22;16814;52.118;11.436;2023-03-13T04:49:16;6.60;99.90
29571;DHT22;16814;52.118;11.436;2023-03-13T04:51:43;6.60;99.90
29571;DHT22;16814;52.118;11.436;2023-03-13T04:54:09;6.50;99.90
29571;DHT22;16814;52.118;11.436;2023-03-13T04:56:35;6.60;99.90
29571;DHT22;16814;52.118;11.436;2023-03-13T04:59:00;6.60;99.90
29571;DHT22;16814;52.118;11.436;2023-03-13T05:01:26;6.60;99.90
29571;DHT22;16814;52.118;11.436;2023-03-13T05:03:52;6.60;99.90
29571;DHT22;16814;52.118;11.436;2023-03-13T05:06:17;6.70;99.90
29571;DHT22;16814;52.118;11.436;2023-03-13T05:08:43;6.70;99.90
29571;DHT22;16814;52.118;11.436;2023-03-13T05:11:09;6.70;99.90
29571;DHT22;16814;52.118;11.436;2023-03-13T05:13:34;6.70;99.90
29571;DHT22;16814;52.118;11.436;2023-03-13T05:16:00;6.70;99.90
29571;DHT22;16814;52.118;11.436;2023-03-13T05:18:26;6.70;99.90
29571;DHT22;16814;52.118;11.436;2023-03-13T05:20:51;6.60;99.90
29571;DHT22;16814;52.118;11.436;2023-03-13T05:23:17;6.60;99.90
29571;DHT22;16814;52.118;11.436;2023-03-13T05:25:43;6.50;99.90
29571;DHT22;16814;52.118;11.436;2023-03-13T05:28:08;6.50;99.90
29571;DHT22;16814;52.118;11.436;2023-03-13T05:30:34;6.50;99.90
29571;DHT22;16814;52.118;11.436;2023-03-13T05:33:00;6.50;99.90
29571;DHT22;16814;52.118;11.436;2023-03-13T05:35:25;6.50;99.90
29571;DHT22;16814;52.118;11.436;2023-03-13T05:37:51;6.50;99.90
29571;DHT22;16814;52.118;11.436;2023-03-13T05:40:16;6.60;99.90
29571;DHT22;16814;52.118;11.436;2023-03-13T05:42:43;6.60;99.90
29571;DHT22;16814;52.118;11.436;2023-03-13T05:45:09;6.60;99.90
29571;DHT22;16814;52.118;11.436;2023-03-13T05:47:35;6.60;99.90
29571;DHT22;16814;52.118;11.436;2023-03-13T05:50:01;6.60;99.90
29571;DHT22;16814;52.118;11.436;2023-03-13T05:52:27;6.60;99.90
29571;DHT22;16814;52.118;11.436;2023-03-13T05:54:53;6.70;99.90
29571;DHT22;16814;52.118;11.436;2023-03-13T05:57:18;6.70;99.90
29571;DHT22;16814;52.118;11.436;2023-03-13T05:59:44;6.70;99.90
29571;DHT22;16814;52.118;11.436;2023-03-13T06:02:09;6.70;99.90
29571;DHT22;16814;52.118;11.436;2023-03-13T06:04:35;6.70;99.90
29571;DHT22;16814;52.118;11.436;2023-03-13T06:07:01;6.80;99.90
29571;DHT22;16814;52.118;11.436;2023-03-13T06:09:26;6.80;99.90
29571;DHT22;16814;52.118;11.436;2023-03-13T06:11:52;6.90;99.90
29571;DHT22;16814;52.118;11.436;2023-03-13T06:14:17;7.00;99.90
29571;DHT22;16814;52.118;11.436;2023-03-13T06:16:43;7.00;99.90
29571;DHT22;16814;52.118;11.436;2023-03-13T06:19:09;7.10;99.90
29571;DHT22;16814;52.118;11.436;2023-03-13T06:21:34;7.00;99.90
29571;DHT22;16814;52.118;11.436;2023-03-13T06:24:00;7.00;99.90
29571;DHT22;16814;52.118;11.436;2023-03-13T06:26:25;7.10;99.90
29571;DHT22;16814;52.118;11.436;2023-03-13T06:28:51;7.00;99.90
29571;DHT22;16814;52.118;11.436;2023-03-13T06:31:17;7.10;99.90
29571;DHT22;16814;52.118;11.436;2023-03-13T06:33:42;7.10;99.90
29571;DHT22;16814;52.118;11.436;2023-03-13T06:36:08;7.10;99.90
29571;DHT22;16814;52.118;11.436;2023-03-13T06:38:34;7.10;99.90
29571;DHT22;16814;52.118;11.436;2023-03-13T06:41:00;7.20;99.90
29571;DHT22;16814;52.118;11.436;2023-03-13T06:43:26;7.20;99.90
29571;DHT22;16814;52.118;11.436;2023-03-13T06:45:52;7.20;99.90
29571;DHT22;16814;52.118;11.436;2023-03-13T06:48:17;7.20;99.90
29571;DHT22;16814;52.118;11.436;2023-03-13T06:50:43;7.20;99.90
29571;DHT22;16814;52.118;11.436;2023-03-13T06:53:14;7.30;99.90
29571;DHT22;16814;52.118;11.436;2023-03-13T06:55:41;7.30;99.90
29571;DHT22;16814;52.118;11.436;2023-03-13T06:58:06;7.30;99.90
29571;DHT22;16814;52.118;11.436;2023-03-13T07:00:32;7.30;99.90
29571;DHT22;16814;52.118;11.436;2023-03-13T07:02:58;7.40;99.90
29571;DHT22;16814;52.118;11.436;2023-03-13T07:05:24;7.40;99.90
29571;DHT22;16814;52.118;11.436;2023-03-13T07:07:50;7.40;99.90
29571;DHT22;16814;52.118;11.436;2023-03-13T07:10:15;7.40;99.90
29571;DHT22;16814;52.118;11.436;2023-03-13T07:12:41;7.50;99.90
29571;DHT22;16814;52.118;11.436;2023-03-13T07:15:07;7.50;99.90
29571;DHT22;16814;52.118;11.436;2023-03-13T07:17:32;7.50;99.90
29571;DHT22;16814;52.118;11.436;2023-03-13T07:19:58;7.50;99.90
29571;DHT22;16814;52.118;11.436;2023-03-13T07:22:23;7.70;99.90
29571;DHT22;16814;52.118;11.436;2023-03-13T07:24:49;7.70;99.90
29571;DHT22;16814;52.118;11.436;2023-03-13T07:27:16;7.80;99.90
29571;DHT22;16814;52.118;11.436;2023-03-13T07:29:42;7.80;99.90
29571;DHT22;16814;52.118;11.436;2023-03-13T07:32:07;7.90;99.90
29571;DHT22;16814;52.118;11.436;2023-03-13T07:34:33;7.90;99.90
29571;DHT22;16814;52.118;11.436;2023-03-13T07:36:58;7.90;99.90
29571;DHT22;16814;52.118;11.436;2023-03-13T07:39:24;7.90;99.90
29571;DHT22;16814;52.118;11.436;2023-03-13T07:41:49;8.00;99.90
29571;DHT22;16814;52.118;11.436;2023-03-13T07:44:15;8.00;99.90
29571;DHT22;16814;52.118;11.436;2023-03-13T07:46:41;8.00;99.90
29571;DHT22;16814;52.118;11.436;2023-03-13T07:49:06;8.10;99.90
29571;DHT22;16814;52.118;11.436;2023-03-13T07:51:32;8.10;99.90
29571;DHT22;16814;52.118;11.436;2023-03-13T07:53:57;8.10;99.90
29571;DHT22;16814;52.118;11.436;2023-03-13T07:56:23;8.20;99.90
29571;DHT22;16814;52.118;11.436;2023-03-13T07:58:49;8.30;99.90
29571;DHT22;16814;52.118;11.436;2023-03-13T08:01:16;8.30;99.90
29571;DHT22;16814;52.118;11.436;2023-03-13T08:03:43;8.30;99.90
29571;DHT22;16814;52.118;11.436;2023-03-13T08:06:12;8.40;99.90
29571;DHT22;16814;52.118;11.436;2023-03-13T08:08:39;8.50;99.90
29571;DHT22;16814;52.118;11.436;2023-03-13T08:11:27;8.50;99.90
29571;DHT22;16814;52.118;11.436;2023-03-13T08:13:53;8.50;99.90
29571;DHT22;16814;52.118;11.436;2023-03-13T08:16:20;8.70;99.90
29571;DHT22;16814;52.118;11.436;2023-03-13T08:18:52;8.70;99.90
29571;DHT22;16814;52.118;11.436;2023-03-13T08:21:28;8.80;99.90
29571;DHT22;16814;52.118;11.436;2023-03-13T08:23:57;8.80;99.90
29571;DHT22;16814;52.118;11.436;2023-03-13T08:26:25;8.80;99.90
29571;DHT22;16814;52.118;11.436;2023-03-13T08:28:53;8.90;99.90
29571;DHT22;16814;52.118;11.436;2023-03-13T08:31:28;8.90;99.90
29571;DHT22;16814;52.118;11.436;2023-03-13T08:33:53;9.00;99.90
29571;DHT22;16814;52.118;11.436;2023-03-13T08:36:35;9.00;99.90
29571;DHT22;16814;52.118;11.436;2023-03-13T08:39:04;9.00;99.90
29571;DHT22;16814;52.118;11.436;2023-03-13T08:41:33;9.10;99.90
29571;DHT22;16814;52.118;11.436;2023-03-13T08:44:00;9.20;99.90
29571;DHT22;16814;52.118;11.436;2023-03-13T08:46:28;9.20;99.90
29571;DHT22;16814;52.118;11.436;2023-03-13T08:48:54;9.30;99.90
29571;DHT22;16814;52.118;11.436;2023-03-13T08:51:22;9.40;99.90
29571;DHT22;16814;52.118;11.436;2023-03-13T08:53:48;9.50;99.90
29571;DHT22;16814;52.118;11.436;2023-03-13T08:56:16;9.50;99.90
29571;DHT22;16814;52.118;11.436;2023-03-13T08:58:41;9.60;99.90
29571;DHT22;16814;52.118;11.436;2023-03-13T09:01:12;9.60;99.90
29571;DHT22;16814;52.118;11.436;2023-03-13T09:03:39;9.70;99.90
29571;DHT22;16814;52.118;11.436;2023-03-13T09:06:05;9.70;99.90
29571;DHT22;16814;52.118;11.436;2023-03-13T09:08:33;9.80;99.90
29571;DHT22;16814;52.118;11.436;2023-03-13T09:11:01;9.90;99.90
29571;DHT22;16814;52.118;11.436;2023-03-13T09:13:28;9.90;99.90
29571;DHT22;16814;52.118;11.436;2023-03-13T09:15:58;10.00;99.90
29571;DHT22;16814;52.118;11.436;2023-03-13T09:18:25;9.90;99.90
29571;DHT22;16814;52.118;11.436;2023-03-13T09:20:50;10.00;99.90
29571;DHT22;16814;52.118;11.436;2023-03-13T09:23:16;10.00;99.90
29571;DHT22;16814;52.118;11.436;2023-03-13T09:25:42;10.00;99.90
29571;DHT22;16814;52.118;11.436;2023-03-13T09:28:08;10.10;99.90
29571;DHT22;16814;52.118;11.436;2023-03-13T09:30:33;10.10;99.90
29571;DHT22;16814;52.118;11.436;2023-03-13T09:32:59;10.10;99.90
29571;DHT22;16814;52.118;11.436;2023-03-13T09:35:24;10.20;99.90
29571;DHT22;16814;52.118;11.436;2023-03-13T09:37:50;10.30;99.90
29571;DHT22;16814;52.118;11.436;2023-03-13T09:40:18;10.40;99.90
29571;DHT22;16814;52.118;11.436;2023-03-13T09:42:51;10.40;99.90
29571;DHT22;16814;52.118;11.436;2023-03-13T09:47:55;10.70;99.90
29571;DHT22;16814;52.118;11.436;2023-03-13T09:50:26;10.80;99.90
29571;DHT22;16814;52.118;11.436;2023-03-13T09:53:01;10.80;99.90
29571;DHT22;16814;52.118;11.436;2023-03-13T09:55:32;10.90;99.90
29571;DHT22;16814;52.118;11.436;2023-03-13T09:58:03;11.10;99.90
29571;DHT22;16814;52.118;11.436;2023-03-13T10:00:36;11.30;99.90
29571;DHT22;16814;52.118;11.436;2023-03-13T10:03:19;11.50;99.90
29571;DHT22;16814;52.118;11.436;2023-03-13T10:05:53;11.80;99.90
29571;DHT22;16814;52.118;11.436;2023-03-13T10:08:37;11.90;99.90
29571;DHT22;16814;52.118;11.436;2023-03-13T10:11:11;12.00;99.90
29571;DHT22;16814;52.118;11.436;2023-03-13T10:13:52;12.10;99.90
29571;DHT22;16814;52.118;11.436;2023-03-13T10:16:26;12.10;99.90
29571;DHT22;16814;52.118;11.436;2023-03-13T10:18:55;12.20;99.90
29571;DHT22;16814;52.118;11.436;2023-03-13T10:21:24;12.10;99.90
29571;DHT22;16814;52.118;11.436;2023-03-13T10:23:58;12.20;99.90
29571;DHT22;16814;52.118;11.436;2023-03-13T10:26:28;12.40;99.90
29571;DHT22;16814;52.118;11.436;2023-03-13T10:28:56;12.50;99.90
29571;DHT22;16814;52.118;11.436;2023-03-13T10:31:32;12.70;99.90
29571;DHT22;16814;52.118;11.436;2023-03-13T10:34:09;12.90;99.90
29571;DHT22;16814;52.118;11.436;2023-03-13T10:36:42;13.00;99.90
29571;DHT22;16814;52.118;11.436;2023-03-13T10:39:15;13.00;99.90
29571;DHT22;16814;52.118;11.436;2023-03-13T10:41:41;13.10;99.90
29571;DHT22;16814;52.118;11.436;2023-03-13T10:44:16;13.10;99.90
29571;DHT22;16814;52.118;11.436;2023-03-13T10:46:44;13.10;99.90
29571;DHT22;16814;52.118;11.436;2023-03-13T10:49:19;13.10;99.90
29571;DHT22;16814;52.118;11.436;2023-03-13T10:51:50;13.20;99.90
29571;DHT22;16814;52.118;11.436;2023-03-13T10:54:23;13.20;99.90
29571;DHT22;16814;52.118;11.436;2023-03-13T10:56:50;13.20;99.90
29571;DHT22;16814;52.118;11.436;2023-03-13T10:59:24;13.30;99.90
29571;DHT22;16814;52.118;11.436;2023-03-13T11:01:51;13.30;99.90
29571;DHT22;16814;52.118;11.436;2023-03-13T11:04:24;13.30;99.90
29571;DHT22;16814;52.118;11.436;2023-03-13T11:06:58;13.30;99.90
29571;DHT22;16814;52.118;11.436;2023-03-13T11:09:25;13.30;99.90
29571;DHT22;16814;52.118;11.436;2023-03-13T11:11:53;13.30;99.90
29571;DHT22;16814;52.118;11.436;2023-03-13T11:14:22;13.30;99.90
29571;DHT22;16814;52.118;11.436;2023-03-13T11:16:59;13.30;99.90
29571;DHT22;16814;52.118;11.436;2023-03-13T11:24:49;13.20;99.90
29571;DHT22;16814;52.118;11.436;2023-03-13T11:33:04;13.20;99.90
29571;DHT22;16814;52.118;11.436;2023-03-13T11:35:46;13.30;99.90
29571;DHT22;16814;52.118;11.436;2023-03-13T11:38:35;13.40;99.90
29571;DHT22;16814;52.118;11.436;2023-03-13T11:44:27;13.50;99.90
29571;DHT22;16814;52.118;11.436;2023-03-13T11:46:58;13.50;99.90
29571;DHT22;16814;52.118;11.436;2023-03-13T11:49:42;13.60;99.90
29571;DHT22;16814;52.118;11.436;2023-03-13T11:52:39;13.70;99.90
29571;DHT22;16814;52.118;11.436;2023-03-13T11:58:31;13.80;99.90
29571;DHT22;16814;52.118;11.436;2023-03-13T12:01:06;13.80;99.90
29571;DHT22;16814;52.118;11.436;2023-03-13T12:03:40;14.00;99.90
29571;DHT22;16814;52.118;11.436;2023-03-13T12:09:25;14.10;99.90
29571;DHT22;16814;52.118;11.436;2023-03-13T12:14:38;14.20;99.90
29571;DHT22;16814;52.118;11.436;2023-03-13T12:17:28;14.20;99.90
29571;DHT22;16814;52.118;11.436;2023-03-13T12:20:21;14.20;99.90
29571;DHT22;16814;52.118;11.436;2023-03-13T12:22:56;14.20;99.90
29571;DHT22;16814;52.118;11.436;2023-03-13T12:25:38;14.20;99.90
29571;DHT22;16814;52.118;11.436;2023-03-13T12:31:03;14.20;99.90
29571;DHT22;16814;52.118;11.436;2023-03-13T12:33:39;14.10;99.90
29571;DHT22;16814;52.118;11.436;2023-03-13T12:36:32;14.20;99.90
29571;DHT22;16814;52.118;11.436;2023-03-13T12:39:13;14.10;99.90
29571;DHT22;16814;52.118;11.436;2023-03-13T12:41:43;14.10;99.90
29571;DHT22;16814;52.118;11.436;2023-03-13T12:44:17;14.10;99.90
29571;DHT22;16814;52.118;11.436;2023-03-13T12:47:30;14.10;99.90
29571;DHT22;16814;52.118;11.436;2023-03-13T12:50:12;14.00;99.90
29571;DHT22;16814;52.118;11.436;2023-03-13T12:53:06;14.00;99.90
29571;DHT22;16814;52.118;11.436;2023-03-13T12:58:42;14.30;99.90
29571;DHT22;16814;52.118;11.436;2023-03-13T13:01:38;14.40;99.90
29571;DHT22;16814;52.118;11.436;2023-03-13T13:04:12;14.50;99.90
29571;DHT22;16814;52.118;11.436;2023-03-13T13:10:00;14.80;99.90
29571;DHT22;16814;52.118;11.436;2023-03-13T13:12:26;14.90;99.90
29571;DHT22;16814;52.118;11.436;2023-03-13T13:20:37;14.80;99.90
29571;DHT22;16814;52.118;11.436;2023-03-13T13:23:25;14.80;99.90
29571;DHT22;16814;52.118;11.436;2023-03-13T13:25:53;14.80;99.90
29571;DHT22;16814;52.118;11.436;2023-03-13T13:28:25;14.80;99.90
29571;DHT22;16814;52.118;11.436;2023-03-13T13:30:56;14.80;99.90
29571;DHT22;16814;52.118;11.436;2023-03-13T13:38:35;14.70;99.90
29571;DHT22;16814;52.118;11.436;2023-03-13T13:43:40;14.70;99.90
29571;DHT22;16814;52.118;11.436;2023-03-13T13:49:24;14.70;99.90
29571;DHT22;16814;52.118;11.436;2023-03-13T13:57:07;14.90;99.90
29571;DHT22;16814;52.118;11.436;2023-03-13T13:59:45;15.00;99.90
29571;DHT22;16814;52.118;11.436;2023-03-13T14:02:23;15.20;99.90
29571;DHT22;16814;52.118;11.436;2023-03-13T14:05:01;15.30;99.90
29571;DHT22;16814;52.118;11.436;2023-03-13T14:07:41;15.40;99.90
29571;DHT22;16814;52.118;11.436;2023-03-13T14:10:29;15.50;99.90
29571;DHT22;16814;52.118;11.436;2023-03-13T14:12:58;15.60;99.90
29571;DHT22;16814;52.118;11.436;2023-03-13T14:15:31;15.70;99.90
29571;DHT22;16814;52.118;11.436;2023-03-13T14:18:09;15.70;99.90
29571;DHT22;16814;52.118;11.436;2023-03-13T14:20:59;15.70;99.90
29571;DHT22;16814;52.118;11.436;2023-03-13T14:23:33;15.70;99.90
29571;DHT22;16814;52.118;11.436;2023-03-13T14:26:29;15.70;99.90
29571;DHT22;16814;52.118;11.436;2023-03-13T14:31:31;15.70;99.90
29571;DHT22;16814;52.118;11.436;2023-03-13T14:34:00;15.70;99.90
29571;DHT22;16814;52.118;11.436;2023-03-13T14:36:26;15.60;99.90
29571;DHT22;16814;52.118;11.436;2023-03-13T14:38:57;15.40;99.90
29571;DHT22;16814;52.118;11.436;2023-03-13T14:41:36;15.40;99.90
29571;DHT22;16814;52.118;11.436;2023-03-13T14:44:09;15.40;99.90
29571;DHT22;16814;52.118;11.436;2023-03-13T14:46:40;15.40;99.90
29571;DHT22;16814;52.118;11.436;2023-03-13T14:49:26;15.40;99.90
29571;DHT22;16814;52.118;11.436;2023-03-13T14:52:04;15.40;99.90
29571;DHT22;16814;52.118;11.436;2023-03-13T14:54:33;15.40;99.90
29571;DHT22;16814;52.118;11.436;2023-03-13T14:57:04;15.40;99.90
29571;DHT22;16814;52.118;11.436;2023-03-13T14:59:30;15.30;99.90
29571;DHT22;16814;52.118;11.436;2023-03-13T15:02:23;15.30;99.90
29571;DHT22;16814;52.118;11.436;2023-03-13T15:04:57;15.30;99.90
29571;DHT22;16814;52.118;11.436;2023-03-13T15:07:41;15.20;99.90
29571;DHT22;16814;52.118;11.436;2023-03-13T15:10:31;15.20;99.90
29571;DHT22;16814;52.118;11.436;2023-03-13T15:12:57;15.10;99.90
29571;DHT22;16814;52.118;11.436;2023-03-13T15:15:23;15.10;99.90
29571;DHT22;16814;52.118;11.436;2023-03-13T15:17:49;15.10;99.90
29571;DHT22;16814;52.118;11.436;2023-03-13T15:20:15;15.10;99.90
29571;DHT22;16814;52.118;11.436;2023-03-13T15:22:43;15.10;99.90
29571;DHT22;16814;52.118;11.436;2023-03-13T15:25:18;15.00;99.90
29571;DHT22;16814;52.118;11.436;2023-03-13T15:27:44;15.10;99.90
29571;DHT22;16814;52.118;11.436;2023-03-13T15:30:17;15.00;99.90
29571;DHT22;16814;52.118;11.436;2023-03-13T15:32:43;15.00;99.90
29571;DHT22;16814;52.118;11.436;2023-03-13T15:35:31;14.90;99.90
29571;DHT22;16814;52.118;11.436;2023-03-13T15:37:59;14.90;99.90
29571;DHT22;16814;52.118;11.436;2023-03-13T15:40:25;14.80;99.90
29571;DHT22;16814;52.118;11.436;2023-03-13T15:42:52;14.90;99.90
29571;DHT22;16814;52.118;11.436;2023-03-13T15:45:18;14.80;99.90
29571;DHT22;16814;52.118;11.436;2023-03-13T15:47:44;14.80;99.90
29571;DHT22;16814;52.118;11.436;2023-03-13T15:50:16;14.80;99.90
29571;DHT22;16814;52.118;11.436;2023-03-13T15:52:42;15.00;99.90
29571;DHT22;16814;52.118;11.436;2023-03-13T15:55:10;15.00;99.90
29571;DHT22;16814;52.118;11.436;2023-03-13T15:57:39;15.00;99.90
29571;DHT22;16814;52.118;11.436;2023-03-13T16:00:11;15.00;99.90
29571;DHT22;16814;52.118;11.436;2023-03-13T16:02:38;14.90;99.90
29571;DHT22;16814;52.118;11.436;2023-03-13T16:05:04;14.90;99.90
29571;DHT22;16814;52.118;11.436;2023-03-13T16:07:29;14.80;99.90
29571;DHT22;16814;52.118;11.436;2023-03-13T16:09:55;14.80;99.90
29571;DHT22;16814;52.118;11.436;2023-03-13T16:12:20;14.70;99.90
29571;DHT22;16814;52.118;11.436;2023-03-13T16:14:46;14.60;99.90
29571;DHT22;16814;52.118;11.436;2023-03-13T16:17:16;14.60;99.90
29571;DHT22;16814;52.118;11.436;2023-03-13T16:19:43;14.50;99.90
29571;DHT22;16814;52.118;11.436;2023-03-13T16:22:09;14.50;99.90
29571;DHT22;16814;52.118;11.436;2023-03-13T16:24:35;14.40;99.90
29571;DHT22;16814;52.118;11.436;2023-03-13T16:27:13;14.40;99.90
29571;DHT22;16814;52.118;11.436;2023-03-13T16:29:39;14.30;99.90
29571;DHT22;16814;52.118;11.436;2023-03-13T16:32:05;14.40;99.90
29571;DHT22;16814;52.118;11.436;2023-03-13T16:34:31;14.40;99.90
29571;DHT22;16814;52.118;11.436;2023-03-13T16:36:56;14.40;99.90
29571;DHT22;16814;52.118;11.436;2023-03-13T16:39:22;14.40;99.90
29571;DHT22;16814;52.118;11.436;2023-03-13T16:41:47;14.40;99.90
29571;DHT22;16814;52.118;11.436;2023-03-13T16:44:13;14.40;99.90
29571;DHT22;16814;52.118;11.436;2023-03-13T16:46:40;14.40;99.90
29571;DHT22;16814;52.118;11.436;2023-03-13T16:49:09;14.30;99.90